Time;durP1;ratioP1;P1;durP2;ratioP2;P2;SDS_P1;SDS_P2;PMS_P1;PMS_P2;Temp;Humidity;BMP_temperature;BMP_pressure;BME280_temperature;BME280_humidity;BME280_pressure;Samples;Min_cycle;Max_cycle;Signal;HPM_P1;HPM_P2
2022/01/28 00:01:08;;;;;;;13.05;5.03;;;;;;;10.88;47.11;98218.72;5257971;27;20096;-77
2022/01/28 00:03:37;;;;;;;15.43;5.07;;;;;;;10.54;47.62;98227.00;5261203;27;20089;-77
2022/01/28 00:06:06;;;;;;;13.32;4.70;;;;;;;10.53;48.00;98239.06;5261546;27;20113;-77
2022/01/28 00:08:34;;;;;;;13.30;5.32;;;;;;;10.16;48.92;98237.00;5259510;27;20053;-77
2022/01/28 00:11:01;;;;;;;13.55;5.75;;;;;;;10.07;49.47;98220.16;5261127;26;20050;-77
2022/01/28 00:13:38;;;;;;;11.93;4.90;;;;;;;9.59;51.45;98217.66;5260184;27;20116;-77
2022/01/28 00:38:00;;;;;;;10.90;3.87;;;;;;;10.72;47.46;98229.66;5254257;27;20562;-77
2022/01/28 00:40:12;;;;;;;10.75;4.03;;;;;;;10.62;48.18;98237.81;5254092;26;20050;-77
2022/01/28 00:42:39;;;;;;;11.70;4.32;;;;;;;11.37;46.46;98229.56;5256460;27;20105;-77
2022/01/28 00:45:06;;;;;;;10.52;4.05;;;;;;;10.40;49.05;98232.66;5256548;27;20115;-77
2022/01/28 00:47:33;;;;;;;11.65;4.03;;;;;;;10.26;49.42;98220.31;5254902;27;20110;-77
2022/01/28 00:50:00;;;;;;;10.50;4.00;;;;;;;10.79;47.89;98226.84;5256532;27;20050;-77
2022/01/28 00:52:27;;;;;;;9.80;3.75;;;;;;;10.99;47.21;98230.28;5236700;27;20054;-77
2022/01/28 00:54:54;;;;;;;9.73;3.70;;;;;;;9.47;51.35;98220.69;5256507;27;20408;-77
2022/01/28 01:06:43;;;;;;;6.57;1.90;;;;;;;8.32;56.90;98221.88;5277711;26;20085;-76
2022/01/28 01:09:10;;;;;;;6.65;2.37;;;;;;;8.50;57.35;98209.34;5278031;27;20267;-77
2022/01/28 01:11:39;;;;;;;5.22;2.00;;;;;;;7.88;60.10;98210.37;5277956;27;20087;-76
2022/01/28 01:14:06;;;;;;;7.30;2.20;;;;;;;7.75;59.93;98207.28;5277900;27;20057;-76
2022/01/28 01:16:46;;;;;;;7.82;2.10;;;;;;;7.66;60.52;98207.56;5278171;27;20058;-76
2022/01/28 01:19:19;;;;;;;7.95;2.20;;;;;;;7.92;59.82;98201.66;5263146;26;20411;-77
2022/01/28 01:21:53;;;;;;;6.50;2.10;;;;;;;9.02;55.83;98200.75;5237973;27;20398;-76
2022/01/28 01:24:23;;;;;;;8.40;2.33;;;;;;;9.10;55.50;98201.34;5256576;27;20353;-76
2022/01/28 01:26:50;;;;;;;8.57;2.62;;;;;;;8.69;55.67;98190.69;5256453;27;20062;-76
2022/01/28 01:29:20;;;;;;;6.35;2.33;;;;;;;8.99;55.32;98200.88;5255339;27;20073;-76
2022/01/28 01:31:48;;;;;;;8.50;2.62;;;;;;;8.60;56.51;98210.72;5255775;27;20069;-76
2022/01/28 01:34:18;;;;;;;8.85;2.80;;;;;;;7.96;58.49;98228.09;5256562;27;20045;-76
2022/01/28 01:36:46;;;;;;;8.38;2.90;;;;;;;8.57;56.48;98218.56;5237203;27;20070;-76
2022/01/28 01:39:22;;;;;;;7.32;2.40;;;;;;;8.46;56.74;98228.34;5237100;27;20079;-76
2022/01/28 01:42:08;;;;;;;6.97;2.70;;;;;;;8.26;57.52;98224.63;5238528;27;20073;-76
2022/01/28 01:45:13;;;;;;;9.15;2.95;;;;;;;7.94;58.63;98225.59;5256705;26;20066;-77
2022/01/28 01:53:51;;;;;;;9.63;2.83;;;;;;;8.38;56.39;98249.97;5255972;26;20105;-77
2022/01/28 01:56:19;;;;;;;7.65;2.47;;;;;;;8.34;56.85;98250.97;5255973;27;20177;-76
2022/01/28 01:58:47;;;;;;;7.85;2.45;;;;;;;8.16;56.72;98251.50;5255754;27;20062;-76
2022/01/28 02:01:14;;;;;;;10.27;2.70;;;;;;;7.77;57.81;98262.06;5237003;27;20129;-76
2022/01/28 02:03:41;;;;;;;6.32;2.12;;;;;;;8.18;56.54;98265.13;5255928;27;20103;-76
2022/01/28 02:06:08;;;;;;;8.90;2.83;;;;;;;8.35;56.09;98247.50;5256258;27;20055;-76
2022/01/28 02:08:35;;;;;;;6.70;2.35;;;;;;;8.71;54.98;98257.53;5255489;27;20076;-76
2022/01/28 02:11:02;;;;;;;7.28;2.55;;;;;;;8.42;55.11;98243.03;5255785;27;20113;-77
2022/01/28 02:13:33;;;;;;;6.68;2.53;;;;;;;7.87;57.21;98244.66;5256239;27;20076;-76
2022/01/28 02:16:01;;;;;;;7.55;2.28;;;;;;;8.03;56.74;98242.47;5256262;27;20365;-76
2022/01/28 02:18:28;;;;;;;8.13;2.60;;;;;;;8.12;56.16;98248.19;5236500;27;20557;-76
2022/01/28 02:21:02;;;;;;;7.43;2.60;;;;;;;8.46;55.14;98239.47;5236956;27;20142;-76
2022/01/28 02:23:30;;;;;;;10.32;3.35;;;;;;;8.19;56.36;98235.13;5256212;27;20108;-77
2022/01/28 02:25:58;;;;;;;7.50;2.60;;;;;;;8.07;56.75;98236.34;5255894;27;20061;-76
2022/01/28 02:28:28;;;;;;;8.40;2.92;;;;;;;8.38;55.46;98241.44;5236585;27;20332;-77
2022/01/28 02:30:55;;;;;;;9.90;3.30;;;;;;;8.35;55.60;98233.81;5255816;27;20109;-76
2022/01/28 02:33:25;;;;;;;9.63;3.22;;;;;;;8.53;54.69;98229.84;5256252;27;20058;-77
2022/01/28 02:35:52;;;;;;;9.75;3.00;;;;;;;8.03;56.26;98230.47;5237102;27;20473;-76
2022/01/28 02:38:22;;;;;;;8.70;2.80;;;;;;;8.06;56.09;98235.50;5255376;27;20117;-76
2022/01/28 02:40:56;;;;;;;7.22;2.17;;;;;;;7.72;57.39;98215.09;5255993;27;20120;-76
2022/01/28 02:45:53;;;;;;;10.13;3.40;;;;;;;7.20;59.47;98237.06;5255657;27;20117;-76
2022/01/28 02:48:25;;;;;;;9.50;3.60;;;;;;;7.47;58.63;98229.50;5236274;27;20088;-76
2022/01/28 02:53:38;;;;;;;10.35;3.80;;;;;;;7.28;58.99;98228.31;5255002;27;20125;-76
2022/01/28 02:56:14;;;;;;;8.43;3.10;;;;;;;7.46;58.21;98227.84;5256292;26;20102;-76
2022/01/28 02:58:42;;;;;;;8.35;3.00;;;;;;;6.99;59.39;98221.38;5237901;27;20122;-77
2022/01/28 03:01:13;;;;;;;10.02;2.83;;;;;;;6.90;59.07;98225.84;5256058;26;20070;-76
2022/01/28 03:03:41;;;;;;;9.57;2.80;;;;;;;7.01;59.37;98230.69;5256190;27;20447;-77
2022/01/28 03:06:09;;;;;;;6.05;2.25;;;;;;;7.21;58.34;98223.34;5236588;27;20109;-76
2022/01/28 03:08:36;;;;;;;6.35;2.03;;;;;;;7.10;58.98;98234.75;5255324;27;20459;-77
2022/01/28 03:16:15;;;;;;;7.87;2.50;;;;;;;7.08;59.05;98236.53;5256088;27;20046;-77
2022/01/28 03:18:55;;;;;;;7.65;2.28;;;;;;;7.43;58.07;98245.88;5255898;27;20062;-77
2022/01/28 03:23:57;;;;;;;6.07;2.12;;;;;;;7.30;58.49;98237.66;5254905;26;20475;-77
2022/01/28 03:26:26;;;;;;;8.05;2.40;;;;;;;7.11;59.32;98254.41;5256016;27;20077;-76
2022/01/28 03:28:57;;;;;;;5.72;2.00;;;;;;;6.79;59.98;98215.00;5255411;26;20072;-76
2022/01/28 03:31:24;;;;;;;6.18;1.80;;;;;;;6.73;60.63;98237.41;5255729;27;20113;-77
2022/01/28 03:33:51;;;;;;;5.65;1.90;;;;;;;6.81;60.70;98248.34;5255452;27;20105;-77
2022/01/28 03:36:18;;;;;;;7.20;2.17;;;;;;;7.05;59.93;98247.72;5255862;27;20053;-77
2022/01/28 03:38:47;;;;;;;6.60;2.40;;;;;;;7.04;59.76;98240.91;5253573;27;20556;-76
2022/01/28 03:41:17;;;;;;;7.03;2.20;;;;;;;6.99;59.96;98253.00;5236311;26;20428;-77
2022/01/28 03:43:46;;;;;;;5.50;1.98;;;;;;;7.21;59.19;98241.28;5255941;26;20101;-77
2022/01/28 03:46:14;;;;;;;6.60;1.95;;;;;;;7.02;60.01;98252.94;5255663;27;20042;-76
2022/01/28 03:48:42;;;;;;;6.03;1.80;;;;;;;7.02;60.06;98257.19;5255109;26;20096;-76
2022/01/28 03:51:09;;;;;;;5.18;2.05;;;;;;;7.02;60.18;98259.75;5255544;27;20141;-77
2022/01/28 03:53:36;;;;;;;7.10;2.42;;;;;;;6.77;60.89;98265.50;5236636;27;20058;-76
2022/01/28 03:56:03;;;;;;;8.30;2.45;;;;;;;6.29;62.53;98265.78;5256226;27;20104;-77
2022/01/28 03:58:30;;;;;;;9.52;2.83;;;;;;;6.52;62.48;98266.97;5256470;27;20081;-76
2022/01/28 04:00:58;;;;;;;7.30;2.47;;;;;;;6.68;61.88;98284.50;5256615;27;20061;-77
2022/01/28 04:13:52;;;;;;;6.10;2.03;;;;;;;6.62;62.26;98282.09;5256616;27;20050;-76
2022/01/28 04:18:47;;;;;;;8.23;2.62;;;;;;;6.37;63.59;98291.22;5256504;27;20096;-76
2022/01/28 04:21:14;;;;;;;8.35;2.60;;;;;;;6.43;63.48;98295.38;5237323;27;20575;-76
2022/01/28 04:23:41;;;;;;;7.18;2.60;;;;;;;6.07;64.67;98302.97;5256311;27;20117;-76
2022/01/28 04:26:14;;;;;;;6.57;2.30;;;;;;;6.37;63.92;98299.75;5256739;27;20061;-77
2022/01/28 04:28:41;;;;;;;8.70;2.70;;;;;;;6.53;63.34;98297.69;5255332;27;20080;-76
2022/01/28 04:31:08;;;;;;;7.00;2.33;;;;;;;6.59;62.78;98300.13;5256074;27;20074;-77
2022/01/28 04:33:35;;;;;;;5.35;2.25;;;;;;;6.56;62.71;98271.13;5237262;27;20068;-77
2022/01/28 04:36:03;;;;;;;;;;;;;;;6.31;63.84;98279.37;5256874;27;20049;-76
2022/01/28 04:38:40;;;;;;;5.43;1.98;;;;;;;6.09;64.53;98289.25;5236542;27;20013;-77
2022/01/28 04:41:20;;;;;;;5.87;2.25;;;;;;;5.99;64.34;98269.84;5256524;27;20133;-77
2022/01/28 04:43:54;;;;;;;7.07;2.10;;;;;;;6.23;63.40;98273.56;5256474;27;20113;-77
2022/01/28 04:49:14;;;;;;;5.18;1.87;;;;;;;5.88;64.75;98264.06;5240239;27;20119;-76
2022/01/28 04:54:35;;;;;;;4.53;1.50;;;;;;;5.93;63.65;98251.16;5256532;27;20101;-76
2022/01/28 05:02:34;;;;;;;1.08;0.65;;;;;;;5.97;62.92;98261.34;5256354;27;20109;-77
2022/01/28 05:05:14;;;;;;;2.08;0.80;;;;;;;6.09;62.15;98266.19;5256310;27;20060;-76
2022/01/28 05:08:02;;;;;;;1.95;0.77;;;;;;;6.34;61.40;98288.72;5256595;27;20097;-77
2022/01/28 05:15:54;;;;;;;1.00;0.47;;;;;;;6.14;61.01;98301.13;5256598;27;20073;-77
2022/01/28 05:27:08;;;;;;;0.88;0.68;;;;;;;6.40;58.90;98287.75;5256109;26;20100;-76
2022/01/28 05:29:35;;;;;;;0.77;0.50;;;;;;;6.24;59.25;98285.50;5236556;27;20415;-76
2022/01/28 05:32:03;;;;;;;1.37;0.85;;;;;;;6.23;59.68;98303.50;5256307;27;20065;-77
2022/01/28 05:34:30;;;;;;;1.52;0.70;;;;;;;6.45;59.35;98311.56;5256094;27;20061;-76
2022/01/28 05:36:57;;;;;;;;;;;;;;;6.29;59.74;98299.09;5256659;27;20058;-77
2022/01/28 05:39:24;;;;;;;1.62;0.73;;;;;;;6.23;59.89;98314.56;5254794;27;19990;-77
2022/01/28 05:41:52;;;;;;;1.02;0.60;;;;;;;6.29;59.34;98309.34;5255990;27;20130;-77
2022/01/28 05:44:20;;;;;;;0.88;0.70;;;;;;;6.46;59.22;98310.66;5256486;27;20109;-77
2022/01/28 05:46:48;;;;;;;2.00;0.90;;;;;;;6.14;60.51;98327.56;5237316;27;20407;-76
2022/01/28 05:49:16;;;;;;;1.37;0.85;;;;;;;6.33;59.25;98335.72;5254133;27;20379;-76
2022/01/28 05:51:43;;;;;;;0.62;0.60;;;;;;;6.18;59.96;98326.66;5256305;26;20117;-77
2022/01/28 05:54:10;;;;;;;1.27;0.70;;;;;;;6.04;60.66;98334.59;5256048;27;20078;-77
2022/01/28 05:56:37;;;;;;;1.15;0.80;;;;;;;6.19;60.29;98335.19;5256310;27;20124;-76
2022/01/28 06:05:21;;;;;;;2.10;0.70;;;;;;;5.99;61.17;98336.44;5278321;27;20061;-77
2022/01/28 06:07:48;;;;;;;0.75;0.55;;;;;;;6.17;59.87;98339.47;5277924;27;20112;-77
2022/01/28 06:10:15;;;;;;;;;;;;;;;6.64;58.06;98334.19;5288045;26;20389;-77
2022/01/28 06:12:44;;;;;;;1.00;0.60;;;;;;;6.41;58.16;98322.75;5299850;27;19972;-77
2022/01/28 06:15:12;;;;;;;1.12;0.70;;;;;;;6.31;58.89;98340.06;5299454;27;20112;-77
2022/01/28 06:17:39;;;;;;;1.08;0.77;;;;;;;6.27;58.09;98352.09;5299486;27;20063;-77
2022/01/28 06:20:08;;;;;;;1.25;0.77;;;;;;;6.58;56.96;98338.59;5297508;26;20144;-77
2022/01/28 06:22:39;;;;;;;2.85;0.95;;;;;;;6.57;56.96;98352.28;5299273;27;20077;-77
2022/01/28 06:25:08;;;;;;;1.02;0.50;;;;;;;6.63;56.64;98357.31;5299900;27;20117;-77
2022/01/28 06:27:36;;;;;;;2.25;0.65;;;;;;;6.47;56.25;98343.12;5299693;27;20104;-77
2022/01/28 06:30:05;;;;;;;1.92;1.00;;;;;;;6.75;55.31;98349.34;5297753;26;20065;-77
2022/01/28 06:32:33;;;;;;;4.00;1.20;;;;;;;6.58;55.60;98352.25;5280772;26;20439;-77
2022/01/28 06:35:00;;;;;;;1.73;0.80;;;;;;;6.68;55.18;98350.34;5299871;27;20104;-77
2022/01/28 06:37:27;;;;;;;2.22;0.90;;;;;;;6.35;56.19;98362.16;5299381;27;20392;-77
2022/01/28 06:39:54;;;;;;;2.00;0.85;;;;;;;6.61;55.36;98352.22;5298689;27;20069;-77
2022/01/28 06:42:21;;;;;;;3.75;1.52;;;;;;;6.93;54.16;98368.59;5299425;27;20096;-77
2022/01/28 06:44:48;;;;;;;1.27;0.90;;;;;;;6.88;54.07;98355.03;5299394;27;20124;-77
2022/01/28 06:47:15;;;;;;;2.12;0.62;;;;;;;7.46;52.91;98377.56;5299735;27;20392;-77
2022/01/28 06:49:42;;;;;;;3.08;1.15;;;;;;;7.19;53.49;98362.84;5299294;27;20097;-76
2022/01/28 06:52:09;;;;;;;2.62;1.30;;;;;;;7.13;53.72;98374.12;5298988;27;20075;-77
2022/01/28 06:54:39;;;;;;;2.62;1.10;;;;;;;7.35;52.80;98382.12;5299744;27;20430;-77
2022/01/28 06:57:06;;;;;;;2.97;0.90;;;;;;;7.20;53.40;98374.78;5299513;27;20065;-77
2022/01/28 06:59:33;;;;;;;1.58;0.98;;;;;;;7.79;51.54;98369.87;5298939;27;20060;-77
2022/01/28 07:02:00;;;;;;;5.35;0.80;;;;;;;7.07;53.50;98384.50;5279931;27;20140;-77
2022/01/28 07:04:28;;;;;;;2.95;1.15;;;;;;;7.65;52.13;98387.38;5299297;27;20426;-77
2022/01/28 07:06:54;;;;;;;;;;;;;;;8.35;50.16;98394.06;5299923;27;20108;-77
2022/01/28 07:09:22;;;;;;;2.92;1.00;;;;;;;7.91;50.08;98389.28;5299266;26;19952;-78
2022/01/28 07:11:49;;;;;;;0.98;0.70;;;;;;;7.96;50.74;98402.81;5298794;27;20065;-78
2022/01/28 07:14:16;;;;;;;2.20;0.85;;;;;;;9.22;47.47;98396.59;5299411;27;20521;-78
2022/01/28 07:16:43;;;;;;;1.98;0.95;;;;;;;9.34;46.41;98399.66;5280046;27;20121;-78
2022/01/28 07:19:10;;;;;;;3.75;1.00;;;;;;;9.14;46.89;98395.13;5298656;27;20353;-78
2022/01/28 07:21:37;;;;;;;1.92;0.88;;;;;;;8.64;48.17;98405.25;5299110;27;20363;-78
2022/01/28 07:24:04;;;;;;;2.67;1.10;;;;;;;9.35;46.21;98401.34;5279910;27;20077;-78
2022/01/28 07:26:31;;;;;;;3.15;1.02;;;;;;;9.03;46.52;98389.47;5298940;27;20132;-78
2022/01/28 07:28:58;;;;;;;2.72;0.98;;;;;;;8.72;47.80;98410.16;5299450;27;20066;-79
2022/01/28 07:31:25;;;;;;;3.17;1.20;;;;;;;9.40;45.66;98414.94;5300408;27;20106;-80
2022/01/28 07:33:52;;;;;;;1.75;0.93;;;;;;;9.37;45.86;98410.72;5300261;27;20481;-80
2022/01/28 07:36:19;;;;;;;;;;;;;;;8.82;47.17;98414.97;5300596;27;20105;-80
2022/01/28 07:38:46;;;;;;;1.95;1.00;;;;;;;9.57;44.74;98416.06;5300376;27;19952;-79
2022/01/28 07:41:13;;;;;;;3.78;1.00;;;;;;;9.30;45.26;98428.97;5299767;27;20144;-77
2022/01/28 07:43:42;;;;;;;2.42;0.98;;;;;;;9.03;46.41;98430.66;5301161;27;20025;-79
2022/01/28 07:46:09;;;;;;;3.22;1.10;;;;;;;9.35;45.16;98430.50;5301475;27;20049;-81
2022/01/28 07:48:36;;;;;;;2.17;1.10;;;;;;;8.81;45.84;98410.72;5301978;27;20056;-81
2022/01/28 07:51:03;;;;;;;4.32;1.30;;;;;;;8.46;46.64;98437.47;5302904;27;20065;-80
2022/01/28 07:53:30;;;;;;;2.50;1.00;;;;;;;9.21;45.19;98440.41;5302670;27;20128;-80
2022/01/28 07:55:57;;;;;;;2.47;1.25;;;;;;;9.53;44.50;98421.34;5302132;27;20438;-81
2022/01/28 07:58:24;;;;;;;2.70;1.05;;;;;;;9.11;44.89;98433.84;5304514;27;20072;-80
2022/01/28 08:00:51;;;;;;;2.92;1.30;;;;;;;9.68;44.16;98459.53;5303724;27;20124;-79
2022/01/28 08:03:18;;;;;;;2.90;1.00;;;;;;;9.94;43.57;98466.38;5301375;27;20065;-80
2022/01/28 08:05:45;;;;;;;1.90;1.10;;;;;;;9.33;45.22;98459.78;5300649;27;20447;-80
2022/01/28 08:08:13;;;;;;;;;;;;;;;9.17;44.57;98444.81;5300032;27;20097;-81
2022/01/28 08:10:41;;;;;;;2.47;1.08;;;;;;;8.99;45.82;98446.22;5301900;26;20263;-81
2022/01/28 08:13:08;;;;;;;1.98;1.05;;;;;;;8.99;46.04;98437.66;5301835;27;20029;-82
2022/01/28 08:15:36;;;;;;;2.87;1.33;;;;;;;9.45;45.58;98461.97;5300839;27;20117;-81
2022/01/28 08:18:03;;;;;;;4.10;1.27;;;;;;;8.44;47.86;98452.09;5298071;27;20160;-81
2022/01/28 08:20:30;;;;;;;6.57;1.50;;;;;;;9.16;46.46;98463.72;5297760;27;20061;-78
2022/01/28 08:22:57;;;;;;;2.55;1.40;;;;;;;9.34;46.20;98464.03;5297435;27;20084;-80
2022/01/28 08:25:31;;;;;;;2.72;1.25;;;;;;;9.54;45.64;98477.97;5298120;27;20048;-81
2022/01/28 08:27:59;;;;;;;3.92;1.58;;;;;;;9.77;45.14;98460.94;5299730;27;20067;-81
2022/01/28 08:30:27;;;;;;;3.37;1.40;;;;;;;9.12;46.69;98458.69;5275843;27;20034;-81
2022/01/28 08:32:54;;;;;;;4.03;1.67;;;;;;;9.09;47.11;98471.69;5279082;27;20093;-79
2022/01/28 08:35:28;;;;;;;4.50;1.42;;;;;;;9.01;47.09;98453.87;5279123;27;20105;-80
2022/01/28 08:37:57;;;;;;;3.42;1.52;;;;;;;9.17;47.83;98464.56;5277034;27;20105;-80
2022/01/28 08:40:25;;;;;;;3.33;1.48;;;;;;;9.04;47.70;98469.25;5277517;27;20076;-80
2022/01/28 08:42:52;;;;;;;3.33;1.42;;;;;;;9.26;47.16;98467.72;5277874;27;20072;-80
2022/01/28 08:45:20;;;;;;;3.85;1.60;;;;;;;10.39;44.76;98491.50;5278534;27;20112;-80
2022/01/28 08:47:48;;;;;;;3.95;1.42;;;;;;;9.48;46.82;98469.63;5278485;27;20053;-80
2022/01/28 08:50:15;;;;;;;3.95;1.45;;;;;;;9.58;46.33;98489.03;5277916;27;20054;-80
2022/01/28 08:52:46;;;;;;;4.10;1.40;;;;;;;10.25;44.99;98475.69;5278548;27;20140;-80
2022/01/28 08:55:14;;;;;;;3.70;1.30;;;;;;;10.07;45.26;98475.38;5278773;27;20064;-81
2022/01/28 08:57:44;;;;;;;3.28;1.40;;;;;;;9.66;46.70;98496.50;5277847;27;20113;-79
2022/01/28 09:00:13;;;;;;;2.87;1.35;;;;;;;9.31;47.35;98500.19;5277142;27;20161;-79
2022/01/28 09:02:41;;;;;;;4.57;1.37;;;;;;;8.96;48.57;98482.34;5278049;27;20108;-78
2022/01/28 09:05:08;;;;;;;4.25;1.83;;;;;;;9.29;48.28;98487.38;5276121;27;20072;-79
2022/01/28 09:07:35;;;;;;;4.22;1.65;;;;;;;8.94;48.92;98502.13;5278091;27;20101;-78
2022/01/28 09:10:11;;;;;;;4.20;2.22;;;;;;;8.54;50.30;98488.69;5277410;27;20404;-78
2022/01/28 09:12:46;;;;;;;3.35;1.65;;;;;;;8.06;52.40;98487.34;5277690;27;20113;-78
2022/01/28 09:15:14;;;;;;;4.93;1.65;;;;;;;8.16;52.23;98485.38;5276810;27;20097;-78
2022/01/28 09:17:54;;;;;;;5.28;2.00;;;;;;;8.80;50.94;98473.38;5277665;27;20061;-78
2022/01/28 09:20:27;;;;;;;4.43;1.60;;;;;;;8.58;51.12;98511.72;5277764;27;20066;-78
2022/01/28 09:22:56;;;;;;;4.57;1.75;;;;;;;8.93;50.24;98500.44;5278044;27;20117;-78
2022/01/28 09:25:23;;;;;;;3.97;1.85;;;;;;;8.60;50.87;98512.50;5277593;27;20059;-78
2022/01/28 09:27:50;;;;;;;4.22;1.48;;;;;;;8.54;50.85;98504.97;5277998;27;20124;-78
2022/01/28 09:30:17;;;;;;;3.87;1.75;;;;;;;8.81;50.81;98517.94;5284125;27;20109;-78
2022/01/28 09:32:45;;;;;;;3.03;1.55;;;;;;;8.63;50.77;98512.44;5299418;27;20083;-78
2022/01/28 09:35:12;;;;;;;4.78;1.77;;;;;;;9.12;49.13;98523.91;5299699;27;20104;-78
2022/01/28 09:37:39;;;;;;;8.25;2.25;;;;;;;9.23;49.29;98532.16;5299778;27;20549;-78
2022/01/28 09:40:07;;;;;;;6.85;2.70;;;;;;;8.32;50.44;98517.53;5299250;27;20683;-77
2022/01/28 09:42:38;;;;;;;5.03;2.17;;;;;;;8.71;51.20;98519.94;5299769;27;20072;-78
2022/01/28 09:45:07;;;;;;;3.95;1.30;;;;;;;8.33;51.09;98524.34;5299762;27;20052;-78
2022/01/28 09:47:34;;;;;;;5.15;1.70;;;;;;;8.56;50.57;98522.94;5299347;27;20094;-78
2022/01/28 09:50:03;;;;;;;4.53;1.73;;;;;;;8.40;51.01;98518.22;5280060;26;20061;-78
2022/01/28 09:52:30;;;;;;;5.18;1.73;;;;;;;9.05;48.30;98519.00;5299188;27;20116;-78
2022/01/28 09:54:58;;;;;;;3.55;1.40;;;;;;;8.84;48.29;98513.56;5299183;27;20059;-78
2022/01/28 09:57:25;;;;;;;2.85;1.15;;;;;;;9.27;46.74;98528.63;5280037;27;20053;-78
2022/01/28 09:59:52;;;;;;;2.85;1.30;;;;;;;9.32;47.10;98520.75;5299053;27;20124;-78
2022/01/28 10:02:19;;;;;;;4.12;1.48;;;;;;;8.93;46.12;98515.03;5299385;27;20080;-79
2022/01/28 10:04:47;;;;;;;1.58;0.98;;;;;;;9.61;46.00;98504.41;5299802;27;20048;-79
2022/01/28 10:07:16;;;;;;;1.80;1.10;;;;;;;9.03;45.36;98485.56;5299133;27;20116;-79
2022/01/28 10:09:56;;;;;;;1.98;1.05;;;;;;;9.68;43.78;98495.59;5280291;26;20057;-79
2022/01/28 10:12:33;;;;;;;2.55;1.05;;;;;;;9.68;44.18;98492.19;5299451;27;20074;-79
2022/01/28 10:15:16;;;;;;;1.50;0.90;;;;;;;9.44;44.53;98463.69;5281454;27;20135;-79
2022/01/28 10:17:56;;;;;;;2.12;0.90;;;;;;;9.92;42.38;98483.63;5299670;27;20143;-79
2022/01/28 10:20:25;;;;;;;2.12;0.88;;;;;;;9.15;43.03;98477.50;5299493;27;20112;-79
2022/01/28 10:22:54;;;;;;;2.22;1.05;;;;;;;9.23;43.53;98496.09;5279908;27;20069;-79
2022/01/28 10:25:25;;;;;;;2.03;1.08;;;;;;;9.52;42.93;98507.25;5299491;27;20052;-80
2022/01/28 10:28:04;;;;;;;2.65;0.88;;;;;;;9.40;42.23;98480.16;5299246;27;20117;-79
2022/01/28 10:30:37;;;;;;;1.48;0.80;;;;;;;8.73;43.84;98482.16;5298544;27;20411;-79
2022/01/28 10:33:11;;;;;;;4.68;0.98;;;;;;;7.82;45.38;98499.09;5299407;27;20116;-79
2022/01/28 10:35:38;;;;;;;1.62;0.80;;;;;;;7.76;44.88;98509.53;5299734;27;20053;-81
2022/01/28 10:38:07;;;;;;;1.70;0.80;;;;;;;8.30;44.28;98497.91;5299561;27;20060;-79
2022/01/28 10:40:34;;;;;;;2.53;0.77;;;;;;;8.35;44.97;98504.63;5299270;27;20117;-79
2022/01/28 10:43:01;;;;;;;1.60;0.85;;;;;;;8.42;44.85;98477.03;5299147;27;20112;-78
2022/01/28 10:45:31;;;;;;;1.33;0.90;;;;;;;8.45;44.03;98473.53;5299351;27;20049;-79
2022/01/28 10:47:59;;;;;;;4.32;1.00;;;;;;;8.18;44.54;98499.03;5298989;27;20049;-78
2022/01/28 10:50:30;;;;;;;3.50;0.90;;;;;;;7.76;45.73;98506.97;5298723;27;20121;-78
2022/01/28 10:53:06;;;;;;;1.70;0.82;;;;;;;7.97;45.83;98504.72;5299534;27;20065;-79
2022/01/28 10:55:41;;;;;;;0.82;0.80;;;;;;;8.48;44.88;98489.69;5280188;27;20060;-78
2022/01/28 10:58:10;;;;;;;1.95;0.90;;;;;;;9.37;43.13;98493.13;5299099;27;20060;-79
2022/01/28 11:00:39;;;;;;;0.77;0.77;;;;;;;9.30;43.19;98490.78;5299301;27;20080;-80
2022/01/28 11:03:08;;;;;;;1.35;0.80;;;;;;;9.50;42.47;98493.59;5299173;27;20403;-78
2022/01/28 11:05:36;;;;;;;2.45;0.90;;;;;;;8.68;44.00;98484.84;5299383;27;20049;-77
2022/01/28 11:08:06;;;;;;;3.35;1.17;;;;;;;8.38;44.81;98504.53;5299425;27;20099;-80
2022/01/28 11:10:34;;;;;;;1.02;0.77;;;;;;;7.84;46.27;98476.75;5298835;27;20415;-77
2022/01/28 11:13:02;;;;;;;2.05;1.05;;;;;;;8.18;46.74;98481.03;5299307;27;20056;-80
2022/01/28 11:15:30;;;;;;;1.80;0.80;;;;;;;8.26;45.69;98491.97;5299193;27;20069;-80
2022/01/28 11:17:59;;;;;;;1.70;0.82;;;;;;;8.91;45.04;98517.63;5297052;27;20125;-81
2022/01/28 11:20:31;;;;;;;10.73;2.05;;;;;;;7.99;45.49;98514.09;5298539;27;20113;-80
2022/01/28 11:23:20;;;;;;;1.50;0.60;;;;;;;8.27;45.60;98521.94;5299343;27;20057;-80
2022/01/28 11:26:06;;;;;;;2.87;1.10;;;;;;;7.92;47.94;98524.56;5298775;27;20586;-81
2022/01/28 11:29:20;;;;;;;1.33;0.80;;;;;;;7.18;51.50;98526.25;5299288;27;20040;-80
2022/01/28 11:31:51;;;;;;;1.65;0.82;;;;;;;7.01;52.72;98514.63;5300316;27;20058;-80
2022/01/28 11:34:28;;;;;;;1.77;1.12;;;;;;;7.17;53.48;98504.03;5297386;27;20105;-80
2022/01/28 11:36:57;;;;;;;4.90;1.37;;;;;;;7.79;52.58;98483.75;5296453;27;20057;-81
2022/01/28 11:39:37;;;;;;;4.40;1.10;;;;;;;7.91;52.73;98503.16;5295932;27;20132;-80
2022/01/28 11:42:06;;;;;;;2.67;1.10;;;;;;;8.31;51.01;98518.41;5296384;27;20434;-80
2022/01/28 11:44:52;;;;;;;1.87;1.00;;;;;;;8.36;50.59;98515.75;5296475;27;20137;-80
2022/01/28 11:47:24;;;;;;;4.25;1.30;;;;;;;9.01;48.94;98507.94;5296167;27;20524;-81
2022/01/28 11:49:53;;;;;;;2.45;1.08;;;;;;;9.25;47.37;98514.94;5298251;27;20411;-80
2022/01/28 11:52:29;;;;;;;3.60;1.30;;;;;;;8.84;45.77;98503.28;5298534;27;20074;-80
2022/01/28 11:55:26;;;;;;;1.37;0.80;;;;;;;8.92;46.79;98539.06;5299271;27;20072;-77
2022/01/28 11:57:55;;;;;;;4.30;0.90;;;;;;;9.61;43.00;98501.81;5300404;27;20053;-78
2022/01/28 12:00:23;;;;;;;1.15;0.57;;;;;;;9.43;42.74;98516.09;5278820;27;20113;-78
2022/01/28 12:02:52;;;;;;;1.65;0.80;;;;;;;9.12;42.81;98492.16;5298983;27;20094;-81
2022/01/28 12:05:31;;;;;;;2.45;0.90;;;;;;;9.56;41.36;98509.69;5279708;27;20081;-80
2022/01/28 12:08:03;;;;;;;3.50;0.98;;;;;;;8.75;42.17;98513.84;5298788;27;20127;-80
2022/01/28 12:10:33;;;;;;;2.22;0.50;;;;;;;8.46;42.97;98514.63;5298624;27;20121;-80
2022/01/28 12:13:02;;;;;;;0.55;0.45;;;;;;;9.06;41.81;98512.97;5298710;27;20076;-80
2022/01/28 12:15:31;;;;;;;1.17;0.70;;;;;;;9.01;41.74;98519.97;5299420;27;20057;-80
2022/01/28 12:18:06;;;;;;;1.87;0.82;;;;;;;8.83;42.41;98529.91;5300104;27;20396;-80
2022/01/28 12:20:47;;;;;;;2.42;0.68;;;;;;;8.85;41.97;98517.00;5299542;27;20053;-80
2022/01/28 12:23:14;;;;;;;4.50;1.15;;;;;;;9.62;41.38;98539.56;5300030;27;20064;-78
2022/01/28 12:25:40;;;;;;;;;;;;;;;9.75;40.73;98550.34;5300399;27;20555;-77
2022/01/28 12:28:14;;;;;;;0.88;0.70;;;;;;;10.02;40.80;98558.94;5299534;27;19980;-77
2022/01/28 12:30:58;;;;;;;2.05;0.80;;;;;;;9.49;42.17;98549.41;5298665;27;20056;-77
2022/01/28 12:33:27;;;;;;;2.60;1.17;;;;;;;8.91;43.44;98551.09;5299928;27;20137;-77
2022/01/28 12:35:56;;;;;;;1.17;0.82;;;;;;;8.70;43.89;98543.97;5299528;27;20123;-78
2022/01/28 12:38:26;;;;;;;2.28;0.80;;;;;;;8.40;44.60;98541.34;5299938;27;20069;-78
2022/01/28 12:41:05;;;;;;;3.62;1.12;;;;;;;8.64;44.50;98523.56;5299803;27;20331;-78
2022/01/28 12:43:33;;;;;;;1.12;0.70;;;;;;;7.96;46.01;98539.00;5300057;27;20403;-77
2022/01/28 12:46:04;;;;;;;1.77;1.08;;;;;;;7.52;47.77;98541.75;5300009;27;20387;-78
2022/01/28 12:48:31;;;;;;;2.60;0.90;;;;;;;7.52;47.69;98538.31;5280193;27;20463;-77
2022/01/28 12:51:00;;;;;;;3.67;1.10;;;;;;;7.86;46.98;98558.94;5299467;27;20059;-77
2022/01/28 12:53:35;;;;;;;3.67;1.10;;;;;;;7.91;47.52;98546.84;5299836;27;20061;-77
2022/01/28 12:56:04;;;;;;;1.33;0.80;;;;;;;8.34;46.33;98549.22;5299669;27;20061;-78
2022/01/28 12:58:35;;;;;;;4.12;0.98;;;;;;;8.35;45.84;98557.78;5280756;27;20076;-78
2022/01/28 13:01:07;;;;;;;2.95;1.20;;;;;;;8.41;46.08;98557.62;5299592;27;20108;-78
2022/01/28 13:03:46;;;;;;;3.20;1.30;;;;;;;8.99;44.53;98556.03;5299671;27;20161;-78
2022/01/28 13:06:39;;;;;;;1.60;0.80;;;;;;;8.91;44.24;98558.81;5282429;27;20124;-78
2022/01/28 13:09:20;;;;;;;3.10;0.73;;;;;;;8.63;44.11;98532.19;5299981;27;20059;-78
2022/01/28 13:11:51;;;;;;;1.77;1.02;;;;;;;8.85;44.47;98546.13;5280035;26;20366;-77
2022/01/28 13:14:22;;;;;;;3.15;0.80;;;;;;;8.24;46.08;98554.59;5299770;27;20121;-78
2022/01/28 13:16:49;;;;;;;3.22;0.98;;;;;;;8.28;45.20;98543.34;5299467;27;20053;-78
2022/01/28 13:19:17;;;;;;;2.20;1.12;;;;;;;8.40;45.78;98545.66;5299723;27;20125;-78
2022/01/28 13:21:46;;;;;;;1.60;0.90;;;;;;;8.53;46.44;98549.59;5299542;27;20057;-78
2022/01/28 13:24:19;;;;;;;5.87;0.90;;;;;;;8.28;46.66;98541.62;5299449;27;20093;-78
2022/01/28 13:26:53;;;;;;;1.00;0.70;;;;;;;7.98;47.88;98557.81;5299794;27;20072;-78
2022/01/28 13:29:33;;;;;;;3.25;1.08;;;;;;;8.02;48.14;98554.28;5299673;27;20410;-77